Home > Products > Valid Products > TAF

000
FTUS41 KOKX 172000 AAA
TAFGON
TAF AMD
KGON 172044Z 1721/1818 30008KT P6SM SCT030 BKN040
     FM180500 28013G21KT P6SM BKN050
     FM181100 28011KT P6SM FEW035 SCT050
     FM181400 30017G25KT P6SM SCT035=



000
FTUS41 KOKX 172000 AAA
TAFLGA
TAF AMD
KLGA 172044Z 1721/1818 29015G23KT P6SM BKN045
      TEMPO 1721/1722 5SM -SHRA BKN040
     FM180000 29016G24KT P6SM SCT040 BKN060
     FM180600 29019G27KT P6SM BKN060
     FM181000 28016G23KT P6SM SCT060
     FM181400 30019G27KT P6SM SCT035=



000
FTUS41 KOKX 172000 AAA
TAFJFK
TAF AMD
KJFK 172044Z 1721/1824 28014G22KT P6SM BKN040
     FM180000 29016G23KT P6SM SCT040 BKN060
     FM180500 29019G27KT P6SM BKN060
     FM181000 28017G24KT P6SM SCT060
     FM181400 30020G28KT P6SM SCT035
     FM182100 30013G20KT P6SM SCT035=



000
FTUS41 KOKX 172000 AAA
TAFEWR
TAF AMD
KEWR 172044Z 1721/1824 28011G20KT P6SM VCSH FEW035 OVC045
     FM172200 28012G20KT P6SM SCT040 BKN060
     FM180500 28015G23KT P6SM BKN060
     FM181000 27012KT P6SM SCT060
     FM181500 29020G27KT P6SM SCT035
     FM182100 29013G20KT P6SM SCT035=



000
FTUS41 KOKX 172000 AAA
TAFTEB
TAF AMD
KTEB 172044Z 1721/1818 28011G18KT P6SM OVC040
      TEMPO 1721/1722 5SM -SHRA OVC035
     FM180000 29011KT P6SM SCT040 BKN060
     FM180500 28013G21KT P6SM BKN060
     FM181000 27011KT P6SM SCT050
     FM181500 29016G24KT P6SM SCT035=



000
FTUS41 KOKX 172000 AAA
TAFISP
TAF AMD
KISP 172044Z 1721/1818 29011G18KT P6SM FEW035 OVC040
      TEMPO 1721/1723 5SM -SHRA BKN035
     FM180000 29011G19KT P6SM SCT040 BKN060
     FM180600 29014G22KT P6SM BKN060
     FM181100 28012KT P6SM SCT060
     FM181400 30018G26KT P6SM SCT035=



000
FTUS41 KOKX 172000 AAB
TAFBDR
TAF AMD
KBDR 172044Z 1721/1818 29010KT P6SM OVC035
     FM172200 29010KT P6SM BKN040
     FM180000 29010KT P6SM SCT040 BKN060
     FM180600 28012G20KT P6SM BKN060
     FM181100 27010KT P6SM SCT060
     FM181400 29016G24KT P6SM SCT035=



000
FTUS41 KOKX 171800 AAA
TAFSWF
TAF AMD
KSWF 171804Z 1718/1824 29014G22KT P6SM BKN025
     FM172000 29014G22KT P6SM BKN035
     FM172300 29012KT P6SM SCT035 BKN050
     FM180500 29016G23KT P6SM BKN050
     FM181000 29015G22KT P6SM SCT035 SCT050
     FM181400 29019G26KT P6SM SCT035
     FM182100 29013G21KT P6SM SCT035
      AMD NOT SKED=



000
FTUS41 KOKX 171800 AAA
TAFBDR
TAF AMD
KBDR 171802Z 1718/1818 29011KT P6SM BKN035
     FM171900 29013G21KT P6SM BKN035
     FM180000 29010KT P6SM SCT035 BKN050
     FM180600 28012G20KT P6SM BKN050
     FM181100 27010KT P6SM SCT050
     FM181400 29016G24KT P6SM SCT035=



000
FTUS41 KOKX 171700
TAFISP
TAF
KISP 171726Z 1718/1818 29014G22KT P6SM BKN035
     FM180000 29012G20KT P6SM SCT035 BKN050
     FM180600 29014G22KT P6SM BKN050
     FM181100 28012KT P6SM SCT050
     FM181400 30018G26KT P6SM SCT035=



000
FTUS41 KOKX 171700
TAFJFK
TAF
KJFK 171726Z 1718/1824 29016G24KT P6SM BKN035
     FM180000 29016G24KT P6SM SCT035 BKN050
     FM180500 29019G27KT P6SM BKN050
     FM181000 28017G24KT P6SM SCT050
     FM181400 30020G28KT P6SM SCT035
     FM182100 30013G20KT P6SM SCT035=



000
FTUS41 KOKX 171700
TAFBDR
TAF
KBDR 171726Z 1718/1818 29011KT P6SM BKN030
     FM171900 29013G21KT P6SM BKN035
     FM180000 29010KT P6SM SCT035 BKN050
     FM180600 28012G20KT P6SM BKN050
     FM181100 27010KT P6SM SCT050
     FM181400 29016G24KT P6SM SCT035=



000
FTUS41 KOKX 171700
TAFSWF
TAF
KSWF 171726Z 1718/1824 29014G22KT P6SM SCT035 BKN045
     FM172300 29012KT P6SM SCT035 BKN050
     FM180500 29016G23KT P6SM BKN050
     FM181000 29015G22KT P6SM SCT035 SCT050
     FM181400 29019G26KT P6SM SCT035
     FM182100 29013G21KT P6SM SCT035
      AMD NOT SKED=



000
FTUS41 KOKX 171700
TAFGON
TAF
KGON 171726Z 1718/1818 30012KT P6SM BKN025
     FM172300 30011KT P6SM SCT025 BKN040
     FM180600 28013G21KT P6SM BKN050
     FM181100 28011KT P6SM FEW035 SCT050
     FM181400 30017G25KT P6SM SCT035=



000
FTUS41 KOKX 171700
TAFTEB
TAF
KTEB 171726Z 1718/1818 28012G20KT P6SM BKN035
     FM180000 29011KT P6SM SCT035 BKN050
     FM180500 28013G21KT P6SM BKN050
     FM181000 27011KT P6SM SCT050
     FM181500 29016G24KT P6SM SCT035=



000
FTUS41 KOKX 171700
TAFLGA
TAF
KLGA 171726Z 1718/1818 29016G24KT P6SM BKN035
     FM180000 29016G24KT P6SM SCT035 BKN050
     FM180600 29019G27KT P6SM BKN050
     FM181000 28016G23KT P6SM SCT050
     FM181400 30019G27KT P6SM SCT035=



000
FTUS41 KOKX 171700
TAFEWR
TAF
KEWR 171726Z 1718/1824 28015G23KT P6SM BKN035
     FM180000 28012G20KT P6SM SCT035 BKN050
     FM180500 28015G23KT P6SM BKN050
     FM181000 27012KT P6SM SCT050
     FM181500 29020G27KT P6SM SCT035
     FM182100 29013G20KT P6SM SCT035=



000
FTUS41 KOKX 171400 AAB
TAFTEB
TAF AMD
KTEB 171446Z 1715/1812 29007KT P6SM SCT070
     FM171600 29011G17KT P6SM SCT070
     FM171800 28012G20KT P6SM BKN035
     FM172100 28015G24KT P6SM BKN035
     FM180500 28012G20KT P6SM SCT035=



000
FTUS41 KOKX 171400 AAB
TAFLGA
TAF AMD
KLGA 171446Z 1715/1812 30013G20KT P6SM SCT070
     FM171800 29015G23KT P6SM BKN035
     FM172100 29017G27KT P6SM BKN035
     FM180800 28016G24KT P6SM SCT035=



000
FTUS41 KOKX 171400 AAC
TAFGON
TAF AMD
KGON 171446Z 1715/1812 30007KT P6SM SCT035
      TEMPO 1715/1716 6SM BR FEW008 BKN035
     FM171700 29011KT P6SM SCT025 BKN050
     FM172000 29011G19KT P6SM BKN035
     FM180400 29015G25KT P6SM BKN035=



000
FTUS41 KOKX 171400 AAC
TAFBDR
TAF AMD
KBDR 171446Z 1715/1812 31007KT P6SM SCT070
     FM171600 29010G17KT P6SM SCT070
     FM171900 29012G20KT P6SM BKN035
     FM172200 30014G23KT P6SM BKN035=



000
FTUS41 KOKX 171400 AAA
TAFISP
TAF AMD
KISP 171446Z 1715/1812 29009KT P6SM SCT009 BKN015
      TEMPO 1715/1716 BKN009
     FM171600 29011G18KT P6SM SCT070
     FM171900 28013G20KT P6SM BKN035
     FM172200 29014G24KT P6SM BKN035=



000
FTUS41 KOKX 171400 AAB
TAFEWR
TAF AMD
KEWR 171446Z 1715/1818 27008KT P6SM SCT070
     FM171600 28012G18KT P6SM SCT070
     FM171800 28015G23KT P6SM BKN035
     FM172100 28015G25KT P6SM BKN035
     FM180700 28014KT P6SM SCT035
     FM181300 29017G27KT P6SM SCT035=



000
FTUS41 KOKX 171400 AAB
TAFJFK
TAF AMD
KJFK 171446Z 1715/1818 29011G17KT P6SM SCT070
     FM171800 29015G23KT P6SM BKN035
     FM172100 29019G28KT P6SM BKN035
     FM180800 28016G25KT P6SM SCT035
     FM181600 30018G28KT P6SM SCT035=



000
FTUS41 KOKX 171200 AAB
TAFBDR
TAF AMD
KBDR 171257Z 1713/1812 31006KT P6SM SCT020 BKN035
      TEMPO 1713/1715 BKN020
     FM171500 28010G17KT P6SM SCT025 BKN050
     FM171900 29012G20KT P6SM BKN035
     FM172200 30014G23KT P6SM BKN035=



000
FTUS41 KOKX 171200 AAB
TAFGON
TAF AMD
KGON 171242Z 1713/1812 34006KT 6SM BR SCT015 BKN035 OVC050
      TEMPO 1713/1715 3SM BR BKN015
     FM171500 32006KT P6SM SCT010 BKN035
     FM171700 28012KT P6SM SCT025 BKN050
     FM172000 28012G20KT P6SM BKN035
     FM180400 29015G25KT P6SM BKN035=



000
FTUS41 KOKX 171200 AAA
TAFSWF
TAF AMD
KSWF 171229Z 1712/1818 VRB04KT 6SM BR BKN015
     FM171400 27007KT P6SM SCT020 BKN035
     FM171700 28012G20KT P6SM SCT025 BKN035
     FM180000 28014G24KT P6SM BKN035
     FM181600 30015G25KT P6SM SCT035
      AMD NOT SKED=



000
FTUS41 KOKX 171200 AAA
TAFGON
TAF AMD
KGON 171229Z 1712/1812 34006KT 6SM BR SCT015 BKN035 OVC050
     FM171300 32006KT P6SM SCT010 BKN035
     FM171700 28012KT P6SM SCT025 BKN050
     FM172000 28012G20KT P6SM BKN035
     FM180400 29015G25KT P6SM BKN035=



000
FTUS41 KOKX 171200 AAA
TAFBDR
TAF AMD
KBDR 171226Z 1712/1812 31006KT P6SM FEW010 BKN035
     FM171500 28010G17KT P6SM SCT025 BKN050
     FM171900 29012G20KT P6SM BKN035
     FM172200 30014G23KT P6SM BKN035=



000
FTUS41 KOKX 171200 AAA
TAFLGA
TAF AMD
KLGA 171217Z 1712/1812 32008KT P6SM FEW003 SCT015 BKN040
     FM171500 29012G19KT P6SM SCT025 BKN050
     FM171800 29015G23KT P6SM BKN035
     FM172100 29017G27KT P6SM BKN035
     FM180800 28016G24KT P6SM SCT035=



000
FTUS41 KOKX 171200 AAA
TAFEWR
TAF AMD
KEWR 171217Z 1712/1818 32007KT P6SM SCT015 BKN040
     FM171500 28011G17KT P6SM SCT025 BKN050
     FM171800 28015G23KT P6SM BKN035
     FM172100 28015G25KT P6SM BKN035
     FM180700 28014KT P6SM SCT035
     FM181300 29017G27KT P6SM SCT035=



000
FTUS41 KOKX 171200 AAA
TAFTEB
TAF AMD
KTEB 171217Z 1712/1812 31004KT P6SM FEW003 SCT015 BKN035
     FM171500 28010G15KT P6SM SCT025 BKN050
     FM171800 28012G20KT P6SM BKN035
     FM172100 28015G24KT P6SM BKN035
     FM180500 28012G20KT P6SM SCT035=



000
FTUS41 KOKX 171200 AAA
TAFJFK
TAF AMD
KJFK 171217Z 1712/1818 31008KT P6SM FEW006 SCT010 BKN040
     FM171500 29011G19KT P6SM SCT025 BKN050
     FM171800 29015G23KT P6SM BKN035
     FM172100 29019G28KT P6SM BKN035
     FM180800 28016G25KT P6SM SCT035
     FM181600 30018G28KT P6SM SCT035=



000
FTUS41 KOKX 171100
TAFJFK
TAF
KJFK 171140Z 1712/1818 VRB04KT 6SM BR BKN006 BKN010 BKN040
     FM171300 31008KT P6SM SCT006 BKN010 BKN040
      TEMPO 1713/1714 BKN006
     FM171500 29011G19KT P6SM SCT025 BKN050
     FM171800 29015G23KT P6SM BKN035
     FM172100 29019G28KT P6SM BKN035
     FM180800 28016G25KT P6SM SCT035
     FM181600 30018G28KT P6SM SCT035=



000
FTUS41 KOKX 171100
TAFSWF
TAF
KSWF 171140Z 1712/1818 VRB03KT 1SM BR OVC005
     FM171300 27007KT P6SM SCT020 BKN035
     FM171700 28012G20KT P6SM SCT025 BKN035
     FM180000 28014G24KT P6SM BKN035
     FM181600 30015G25KT P6SM SCT035
      AMD NOT SKED=



000
FTUS41 KOKX 171100
TAFEWR
TAF
KEWR 171140Z 1712/1818 32007KT P6SM BKN015 BKN040
      TEMPO 1712/1714 SCT015
     FM171400 28011G17KT P6SM SCT025 BKN050
     FM171800 28015G23KT P6SM BKN035
     FM172100 28015G25KT P6SM BKN035
     FM180700 28014KT P6SM SCT035
     FM181300 29017G27KT P6SM SCT035=



000
FTUS41 KOKX 171100
TAFTEB
TAF
KTEB 171140Z 1712/1812 31004KT P6SM FEW003 BKN015 BKN035
      TEMPO 1712/1714 SCT015
     FM171400 28010G15KT P6SM SCT025 BKN050
     FM171800 28012G20KT P6SM BKN035
     FM172100 28015G24KT P6SM BKN035
     FM180500 28012G20KT P6SM SCT035=



000
FTUS41 KOKX 171100
TAFBDR
TAF
KBDR 171140Z 1712/1812 31006KT P6SM BKN010 BKN035
     FM171600 28010G17KT P6SM SCT025 BKN050
     FM171900 29012G20KT P6SM BKN035
     FM172200 30014G23KT P6SM BKN035=



000
FTUS41 KOKX 171100
TAFGON
TAF
KGON 171140Z 1712/1812 35006KT 3SM -RA BR SCT006 OVC020
      TEMPO 1712/1713 1SM BR BKN006
     FM171300 32006KT P6SM BKN010 BKN035
     FM171700 28012KT P6SM SCT025 BKN050
     FM172000 28012G20KT P6SM BKN035
     FM180400 29015G25KT P6SM BKN035=



000
FTUS41 KOKX 171100
TAFISP
TAF
KISP 171140Z 1712/1812 29006KT 2SM BR BKN004 BKN010 BKN035
     FM171400 31008KT P6SM SCT004 SCT010 BKN025
     FM171600 28010G17KT P6SM SCT025 BKN050
     FM171900 28012G20KT P6SM BKN035
     FM172200 29014G24KT P6SM BKN035=



000
FTUS41 KOKX 171100
TAFLGA
TAF
KLGA 171140Z 1712/1812 32008KT P6SM FEW003 BKN015 BKN040
      TEMPO 1713/1715 SCT015
     FM171500 29012G19KT P6SM SCT025 BKN050
     FM171800 29015G23KT P6SM BKN035
     FM172100 29017G27KT P6SM BKN035
     FM180800 28016G24KT P6SM SCT035=



000
FTUS41 KOKX 170900 AAB
TAFEWR
TAF AMD
KEWR 170951Z 1710/1812 36007KT 6SM BR OVC006
      TEMPO 1710/1711 3SM BR
     FM171100 32007KT P6SM BKN010 BKN035
     FM171500 28011G17KT P6SM SCT025 BKN050
     FM171800 28015G23KT P6SM BKN035
     FM172300 28015G25KT P6SM SCT035
     FM180700 28014KT P6SM SCT035=



000
FTUS41 KOKX 170900 AAB
TAFEWR
TAF AMD
KEWR 170951Z 1710/1812 36007KT 6SM BR OVC006
      TEMPO 1710/1711 3SM BR
     FM171100 32007KT P6SM BKN010 BKN035
     FM171500 28011G17KT P6SM SCT025 BKN050
     FM171800 28015G23KT P6SM BKN035
     FM172300 28015G25KT P6SM SCT035
     FM180700 28014KT P6SM SCT035=



000
FTUS41 KOKX 170900 AAC
TAFLGA
TAF AMD
KLGA 170949Z 1710/1806 34008KT 3SM BR OVC006
      TEMPO 1710/1711 1SM BR
     FM171100 32008KT P6SM FEW003 BKN010 BKN035
     FM171500 29012G19KT P6SM SCT025 BKN050
     FM171800 28015G23KT P6SM BKN035
     FM172300 28017G27KT P6SM SCT035=



000
FTUS41 KOKX 170900 AAC
TAFTEB
TAF AMD
KTEB 170949Z 1710/1806 35004KT 3SM BR OVC006
      TEMPO 1710/1711 1SM BR
     FM171100 31004KT P6SM FEW003 BKN010 BKN035
     FM171500 28010G15KT P6SM SCT025 BKN050
     FM171800 28015G23KT P6SM BKN035
     FM172300 28015G23KT P6SM SCT035=



000
FTUS41 KOKX 170900 AAC
TAFTEB
TAF AMD
KTEB 170949Z 1710/1806 35004KT 3SM BR OVC006
      TEMPO 1710/1711 1SM BR
     FM171100 31004KT P6SM FEW003 BKN010 BKN035
     FM171500 28010G15KT P6SM SCT025 BKN050
     FM171800 28015G23KT P6SM BKN035
     FM172300 28015G23KT P6SM SCT035=



000
FTUS41 KOKX 170900 AAC
TAFLGA
TAF AMD
KLGA 170949Z 1710/1806 34008KT 3SM BR OVC006
      TEMPO 1710/1711 1SM BR
     FM171100 32008KT P6SM FEW003 BKN010 BKN035
     FM171500 29012G19KT P6SM SCT025 BKN050
     FM171800 28015G23KT P6SM BKN035
     FM172300 28017G27KT P6SM SCT035=



000
FTUS41 KOKX 170800 AAB
TAFLGA
TAF AMD
KLGA 170839Z 1709/1806 34008KT 3SM BR OVC003
      TEMPO 1709/1711 1SM BR
     FM171100 32008KT P6SM FEW003 BKN010 BKN035
     FM171500 29012G19KT P6SM SCT025 BKN050
     FM171800 28015G23KT P6SM BKN035
     FM172300 28017G27KT P6SM SCT035=



000
FTUS41 KOKX 170800 AAB
TAFISP
TAF AMD
KISP 170839Z 1709/1806 34006KT 4SM -RA BR OVC004
      TEMPO 1709/1711 1SM BR
     FM171100 29006KT P6SM FEW004 BKN010 BKN035
     FM171600 28012G18KT P6SM SCT025 BKN050
     FM171900 28015G23KT P6SM BKN035
     FM172300 29015G23KT P6SM SCT035=



000
FTUS41 KOKX 170800 AAA
TAFSWF
TAF AMD
KSWF 170839Z 1709/1812 VRB04KT 2SM BR OVC003
      TEMPO 1709/1711 1SM -RA BR
     FM171100 VRB03KT 3SM BR OVC009
     FM171300 27007KT P6SM SCT020 BKN035
     FM171700 28012G20KT P6SM SCT025 BKN035
     FM180000 28011KT P6SM SCT035
      AMD NOT SKED=



000
FTUS41 KOKX 170800 AAA
TAFEWR
TAF AMD
KEWR 170839Z 1709/1812 36007KT 3SM BR OVC005
      TEMPO 1709/1711 1SM BR
     FM171100 32007KT P6SM BKN010 BKN035
     FM171500 28011G17KT P6SM SCT025 BKN050
     FM171800 28015G23KT P6SM BKN035
     FM172300 28015G25KT P6SM SCT035
     FM180700 28014KT P6SM SCT035=



000
FTUS41 KOKX 170800 AAB
TAFJFK
TAF AMD
KJFK 170839Z 1709/1812 35006KT 4SM BR BKN005 OVC010
      TEMPO 1709/1711 1SM BR
     FM171100 32010KT P6SM FEW005 BKN010 BKN035
     FM171500 29013G20KT P6SM SCT025 BKN050
     FM171800 28015G23KT P6SM BKN035
     FM172300 28018G28KT P6SM SCT035=



000
FTUS41 KOKX 170800 AAB
TAFGON
TAF AMD
KGON 170839Z 1709/1806 35006KT 3SM -RA BR SCT006 OVC020
      TEMPO 1710/1713 1SM BR BKN006
     FM171300 32006KT P6SM BKN010 BKN035
     FM171700 28012KT P6SM SCT025 BKN050
     FM172000 28012G22KT P6SM BKN035=



000
FTUS41 KOKX 170800 AAA
TAFBDR
TAF AMD
KBDR 170839Z 1709/1806 VRB06KT 5SM -RA BR OVC008
      TEMPO 1709/1711 2SM BR
     FM171100 31006KT P6SM BKN010 BKN035
     FM171600 28012G18KT P6SM SCT025 BKN050
     FM171900 29012G20KT P6SM BKN035
     FM172300 30012G20KT P6SM SCT035=



000
FTUS41 KOKX 170800 AAB
TAFTEB
TAF AMD
KTEB 170839Z 1709/1806 35004KT 3SM BR OVC003
      TEMPO 1709/1711 1SM BR
     FM171100 31004KT P6SM FEW003 BKN010 BKN035
     FM171500 28010G15KT P6SM SCT025 BKN050
     FM171800 28015G23KT P6SM BKN035
     FM172300 28015G23KT P6SM SCT035=



000
FTUS41 KOKX 170800 AAB
TAFLGA
TAF AMD
KLGA 170839Z 1709/1806 34008KT 3SM BR OVC003
      TEMPO 1709/1711 1SM BR
     FM171100 32008KT P6SM FEW003 BKN010 BKN035
     FM171500 29012G19KT P6SM SCT025 BKN050
     FM171800 28015G23KT P6SM BKN035
     FM172300 28017G27KT P6SM SCT035=



000
FTUS41 KOKX 170800 AAA
TAFSWF
TAF AMD
KSWF 170839Z 1709/1812 VRB04KT 2SM BR OVC003
      TEMPO 1709/1711 1SM -RA BR
     FM171100 VRB03KT 3SM BR OVC009
     FM171300 27007KT P6SM SCT020 BKN035
     FM171700 28012G20KT P6SM SCT025 BKN035
     FM180000 28011KT P6SM SCT035
      AMD NOT SKED=



000
FTUS41 KOKX 170800 AAB
TAFISP
TAF AMD
KISP 170839Z 1709/1806 34006KT 4SM -RA BR OVC004
      TEMPO 1709/1711 1SM BR
     FM171100 29006KT P6SM FEW004 BKN010 BKN035
     FM171600 28012G18KT P6SM SCT025 BKN050
     FM171900 28015G23KT P6SM BKN035
     FM172300 29015G23KT P6SM SCT035=



000
FTUS41 KOKX 170800 AAB
TAFTEB
TAF AMD
KTEB 170839Z 1709/1806 35004KT 3SM BR OVC003
      TEMPO 1709/1711 1SM BR
     FM171100 31004KT P6SM FEW003 BKN010 BKN035
     FM171500 28010G15KT P6SM SCT025 BKN050
     FM171800 28015G23KT P6SM BKN035
     FM172300 28015G23KT P6SM SCT035=



000
FTUS41 KOKX 170800 AAB
TAFGON
TAF AMD
KGON 170839Z 1709/1806 35006KT 3SM -RA BR SCT006 OVC020
      TEMPO 1710/1713 1SM BR BKN006
     FM171300 32006KT P6SM BKN010 BKN035
     FM171700 28012KT P6SM SCT025 BKN050
     FM172000 28012G22KT P6SM BKN035=



000
FTUS41 KOKX 170800 AAB
TAFJFK
TAF AMD
KJFK 170839Z 1709/1812 35006KT 4SM BR BKN005 OVC010
      TEMPO 1709/1711 1SM BR
     FM171100 32010KT P6SM FEW005 BKN010 BKN035
     FM171500 29013G20KT P6SM SCT025 BKN050
     FM171800 28015G23KT P6SM BKN035
     FM172300 28018G28KT P6SM SCT035=



000
FTUS41 KOKX 170800 AAA
TAFBDR
TAF AMD
KBDR 170839Z 1709/1806 VRB06KT 5SM -RA BR OVC008
      TEMPO 1709/1711 2SM BR
     FM171100 31006KT P6SM BKN010 BKN035
     FM171600 28012G18KT P6SM SCT025 BKN050
     FM171900 29012G20KT P6SM BKN035
     FM172300 30012G20KT P6SM SCT035=



000
FTUS41 KOKX 170800 AAA
TAFEWR
TAF AMD
KEWR 170839Z 1709/1812 36007KT 3SM BR OVC005
      TEMPO 1709/1711 1SM BR
     FM171100 32007KT P6SM BKN010 BKN035
     FM171500 28011G17KT P6SM SCT025 BKN050
     FM171800 28015G23KT P6SM BKN035
     FM172300 28015G25KT P6SM SCT035
     FM180700 28014KT P6SM SCT035=



000
FTUS41 KOKX 170700 AAA
TAFGON
TAF AMD
KGON 170724Z 1707/1806 35006KT 2SM RA BR SCT005 BKN020 OVC040
     FM170800 35006KT 2SM -RA BR BKN005 OVC020
     FM171200 32006KT P6SM BKN010 BKN035
     FM171700 28012KT P6SM SCT025 BKN050
     FM172000 28012G22KT P6SM BKN035=



000
FTUS41 KOKX 170700 AAA
TAFGON
TAF AMD
KGON 170724Z 1707/1806 35006KT 2SM RA BR SCT005 BKN020 OVC040
     FM170800 35006KT 2SM -RA BR BKN005 OVC020
     FM171200 32006KT P6SM BKN010 BKN035
     FM171700 28012KT P6SM SCT025 BKN050
     FM172000 28012G22KT P6SM BKN035=



000
FTUS41 KOKX 170700 AAA
TAFLGA
TAF AMD
KLGA 170720Z 1707/1806 02008KT 3SM BR OVC003
      TEMPO 1708/1709 1SM BR
     FM170900 32008KT P6SM FEW003 BKN010 BKN035
     FM171500 29012G19KT P6SM SCT025 BKN050
     FM171800 28015G23KT P6SM BKN035
     FM172300 28017G27KT P6SM SCT035=



000
FTUS41 KOKX 170700 AAA
TAFJFK
TAF AMD
KJFK 170720Z 1707/1812 36006KT 4SM BR OVC005
      TEMPO 1708/1709 1SM BR
     FM170900 32010KT P6SM FEW005 BKN010 BKN035
     FM171500 29013G20KT P6SM SCT025 BKN050
     FM171800 28015G23KT P6SM BKN035
     FM172300 28018G28KT P6SM SCT035=



000
FTUS41 KOKX 170700 AAA
TAFJFK
TAF AMD
KJFK 170720Z 1707/1812 36006KT 4SM BR OVC005
      TEMPO 1708/1709 1SM BR
     FM170900 32010KT P6SM FEW005 BKN010 BKN035
     FM171500 29013G20KT P6SM SCT025 BKN050
     FM171800 28015G23KT P6SM BKN035
     FM172300 28018G28KT P6SM SCT035=



000
FTUS41 KOKX 170700 AAA
TAFLGA
TAF AMD
KLGA 170720Z 1707/1806 02008KT 3SM BR OVC003
      TEMPO 1708/1709 1SM BR
     FM170900 32008KT P6SM FEW003 BKN010 BKN035
     FM171500 29012G19KT P6SM SCT025 BKN050
     FM171800 28015G23KT P6SM BKN035
     FM172300 28017G27KT P6SM SCT035=



000
FTUS41 KOKX 170700 AAA
TAFISP
TAF AMD
KISP 170716Z 1707/1806 VRB06KT 3SM -RA BR BKN004 OVC025
     FM171000 29006KT P6SM FEW004 BKN010 BKN035
     FM171600 28012G18KT P6SM SCT025 BKN050
     FM171900 28015G23KT P6SM BKN035
     FM172300 29015G23KT P6SM SCT035=



000
FTUS41 KOKX 170700 AAA
TAFISP
TAF AMD
KISP 170716Z 1707/1806 VRB06KT 3SM -RA BR BKN004 OVC025
     FM171000 29006KT P6SM FEW004 BKN010 BKN035
     FM171600 28012G18KT P6SM SCT025 BKN050
     FM171900 28015G23KT P6SM BKN035
     FM172300 29015G23KT P6SM SCT035=



000
FTUS41 KOKX 170700 AAA
TAFTEB
TAF AMD
KTEB 170715Z 1707/1806 VRB04KT 3SM BR OVC003
      TEMPO 1707/1709 2SM -RA BR
     FM170900 31004KT P6SM FEW003 BKN010 BKN035
     FM171500 28010G15KT P6SM SCT025 BKN050
     FM171800 28015G23KT P6SM BKN035
     FM172300 28015G23KT P6SM SCT035=



000
FTUS41 KOKX 170700 AAA
TAFTEB
TAF AMD
KTEB 170715Z 1707/1806 VRB04KT 3SM BR OVC003
      TEMPO 1707/1709 2SM -RA BR
     FM170900 31004KT P6SM FEW003 BKN010 BKN035
     FM171500 28010G15KT P6SM SCT025 BKN050
     FM171800 28015G23KT P6SM BKN035
     FM172300 28015G23KT P6SM SCT035=



000
FTUS41 KOKX 170500
TAFGON
TAF
KGON 170540Z 1706/1806 VRB06KT 2SM -RA BR BKN005 OVC040
      TEMPO 1706/1707 SCT005 BKN020
     FM171200 31006KT P6SM BKN010 BKN035
     FM171700 28012KT P6SM SCT025 BKN050
     FM172000 28012G22KT P6SM BKN035=



000
FTUS41 KOKX 170500
TAFSWF
TAF
KSWF 170540Z 1706/1812 VRB03KT 2SM BR OVC004
      TEMPO 1706/1709 1SM -RA BR
     FM170900 VRB03KT 3SM BR OVC009
     FM171300 27007KT P6SM SCT020 BKN035
     FM171700 28012G20KT P6SM SCT025 BKN035
     FM180000 28011KT P6SM SCT035
      AMD NOT SKED=



000
FTUS41 KOKX 170500
TAFBDR
TAF
KBDR 170540Z 1706/1806 VRB06KT 2SM -RA BR BKN007 OVC025
     FM171000 31006KT P6SM BKN010 BKN035
     FM171600 28012G18KT P6SM SCT025 BKN050
     FM171900 29012G20KT P6SM BKN035
     FM172300 30012G20KT P6SM SCT035=



000
FTUS41 KOKX 170500
TAFISP
TAF
KISP 170540Z 1706/1806 VRB06KT 2SM -RA BR BKN006 OVC025
      TEMPO 1706/1707 SCT006 BKN020
     FM171000 29006KT P6SM BKN010 BKN035
     FM171600 28012G18KT P6SM SCT025 BKN050
     FM171900 28015G23KT P6SM BKN035
     FM172300 29015G23KT P6SM SCT035=



000
FTUS41 KOKX 170500
TAFTEB
TAF
KTEB 170540Z 1706/1806 VRB04KT 3SM BR OVC006
      TEMPO 1706/1709 2SM -RA BR
     FM170900 31004KT P6SM BKN010 BKN035
     FM171500 28010G15KT P6SM SCT025 BKN050
     FM171800 28015G23KT P6SM BKN035
     FM172300 28015G23KT P6SM SCT035=



000
FTUS41 KOKX 170500
TAFLGA
TAF
KLGA 170540Z 1706/1806 02008KT 2SM BR OVC005
      TEMPO 1706/1709 1SM -RA BR
     FM170900 32008KT P6SM BKN010 BKN035
     FM171500 29012G19KT P6SM SCT025 BKN050
     FM171800 28015G23KT P6SM BKN035
     FM172300 28017G27KT P6SM SCT035=



000
FTUS41 KOKX 170500
TAFJFK
TAF
KJFK 170540Z 1706/1812 02006KT 3SM BR OVC006
      TEMPO 1706/1709 2SM -RA BR
     FM170900 32010KT P6SM BKN010 BKN035
     FM171500 29013G20KT P6SM SCT025 BKN050
     FM171800 28015G23KT P6SM BKN035
     FM172300 28018G28KT P6SM SCT035=



000
FTUS41 KOKX 170500
TAFEWR
TAF
KEWR 170540Z 1706/1812 36007KT 3SM BR OVC005
      TEMPO 1706/1709 2SM -RA BR
     FM170900 32007KT P6SM BKN010 BKN035
     FM171500 28011G17KT P6SM SCT025 BKN050
     FM171800 28015G23KT P6SM BKN035
     FM172300 28015G25KT P6SM SCT035
     FM180700 28014KT P6SM SCT035=



000
FTUS41 KOKX 170200 AAA
TAFLGA
TAF AMD
KLGA 170243Z 1703/1724 VRB03KT 3SM -RA BR BKN007
     FM170600 27008KT 5SM -RA BR OVC009
     FM170800 29008KT P6SM BKN010 BKN035
     FM171500 29012G19KT P6SM SCT025 BKN050
     FM171800 28015G23KT P6SM BKN035
     FM172300 28017G27KT P6SM SCT035=



000
FTUS41 KOKX 170200 AAA
TAFBDR
TAF AMD
KBDR 170243Z 1703/1724 VRB03KT 2SM -RA BR OVC007
     FM171000 31006KT P6SM BKN010 BKN035
     FM171600 28012G18KT P6SM SCT025 BKN050
     FM171900 29012G20KT P6SM BKN035
     FM172300 30012G20KT P6SM SCT035=



000
FTUS41 KOKX 170200 AAA
TAFEWR
TAF AMD
KEWR 170243Z 1703/1806 VRB03KT 3SM -RA BR BKN003
     FM170600 26007KT 5SM -RA BR OVC009
     FM170800 28007KT P6SM BKN010 BKN035
     FM171500 28011G17KT P6SM SCT025 BKN050
     FM171800 28015G23KT P6SM BKN035
     FM172300 28015G25KT P6SM SCT035=



000
FTUS41 KOKX 170200 AAA
TAFSWF
TAF AMD
KSWF 170243Z 1703/1806 VRB03KT 2SM -RA BR OVC004
     FM170900 VRB03KT 3SM BR OVC009
     FM171300 27007KT P6SM SCT020 BKN035
     FM171700 28012G20KT P6SM SCT025 BKN035
     FM180000 28011KT P6SM SCT035
      AMD NOT SKED=



000
FTUS41 KOKX 170200 AAA
TAFGON
TAF AMD
KGON 170243Z 1703/1724 12004KT 4SM -RA BR BKN006
     FM170500 VRB03KT 2SM -RA BR OVC004
     FM171200 31006KT P6SM BKN010 BKN035
     FM171700 28012KT P6SM SCT025 BKN050
     FM172000 28012G22KT P6SM BKN035=



000
FTUS41 KOKX 170200 AAA
TAFTEB
TAF AMD
KTEB 170243Z 1703/1724 VRB03KT 2SM -RA BR BKN006
     FM170700 27003KT 3SM -RA BR OVC005
     FM170900 27004KT P6SM BKN010 BKN035
     FM171500 28010G15KT P6SM SCT025 BKN050
     FM171800 28015G23KT P6SM BKN035
     FM172300 28015G23KT P6SM SCT035=



000
FTUS41 KOKX 170200 AAA
TAFISP
TAF AMD
KISP 170243Z 1703/1724 VRB03KT 2SM -RA BR BKN006
     FM171000 29006KT P6SM BKN010 BKN035
     FM171600 28012G18KT P6SM SCT025 BKN050
     FM171900 28015G23KT P6SM BKN035
     FM172300 29015G23KT P6SM SCT035=



000
FTUS41 KOKX 170200 AAA
TAFJFK
TAF AMD
KJFK 170243Z 1703/1806 VRB03KT 2SM -RA BR BKN007 OVC012
     FM170600 25006KT 5SM -RA BR OVC007
     FM170800 29010KT P6SM BKN010 BKN035
     FM171500 29013G20KT P6SM SCT025 BKN050
     FM171800 28015G23KT P6SM BKN035
     FM172300 28018G28KT P6SM SCT035=



000
FTUS41 KOKX 162300
TAFTEB
TAF
KTEB 162320Z 1700/1724 14005KT 6SM -RA BKN015
     FM170100 VRB03KT 2SM -RA BR OVC007
     FM170700 27003KT 3SM -RA BR OVC005
     FM170900 27004KT P6SM BKN010 BKN035
     FM171500 28010G15KT P6SM SCT025 BKN050
     FM171800 28015G23KT P6SM BKN035
     FM172300 28015G23KT P6SM SCT035=



000
FTUS41 KOKX 162300
TAFEWR
TAF
KEWR 162320Z 1700/1806 12005KT 6SM -RA BKN015
     FM170100 VRB03KT 3SM -RA BR OVC007
     FM170600 26007KT 5SM -RA BR OVC009
     FM170800 28007KT P6SM BKN010 BKN035
     FM171500 28011G17KT P6SM SCT025 BKN050
     FM171800 28015G23KT P6SM BKN035
     FM172300 28015G25KT P6SM SCT035=



000
FTUS41 KOKX 162300
TAFLGA
TAF
KLGA 162320Z 1700/1724 13008KT 6SM -RA BKN015
     FM170100 VRB03KT 3SM -RA BR OVC009
     FM170600 27008KT 5SM -RA BR OVC009
     FM170800 29008KT P6SM BKN010 BKN035
     FM171500 29012G19KT P6SM SCT025 BKN050
     FM171800 28015G23KT P6SM BKN035
     FM172300 28017G27KT P6SM SCT035=



000
FTUS41 KOKX 162300
TAFBDR
TAF
KBDR 162320Z 1700/1724 12004KT 5SM -RA BR BKN015
     FM170300 VRB03KT 2SM -RA BR OVC006
     FM171000 31006KT P6SM BKN010 BKN035
     FM171600 28012G18KT P6SM SCT025 BKN050
     FM171900 29012G20KT P6SM BKN035
     FM172300 30012G20KT P6SM SCT035=



000
FTUS41 KOKX 162300
TAFGON
TAF
KGON 162320Z 1700/1724 12004KT 5SM -RA BR BKN015
     FM170500 VRB03KT 2SM -RA BR OVC004
     FM171200 31006KT P6SM BKN010 BKN035
     FM171700 28012KT P6SM SCT025 BKN050
     FM172000 28012G22KT P6SM BKN035=



000
FTUS41 KOKX 162300
TAFSWF
TAF
KSWF 162320Z 1700/1806 VRB03KT 4SM -RA BR OVC012
     FM170100 VRB03KT 2SM -RA BR OVC004
     FM170900 VRB03KT 3SM BR OVC009
     FM171300 27007KT P6SM SCT020 BKN035
     FM171700 28012G20KT P6SM SCT025 BKN035
     FM180000 28011KT P6SM SCT035
      AMD NOT SKED=



000
FTUS41 KOKX 162300
TAFISP
TAF
KISP 162320Z 1700/1724 12004KT 5SM -RA BR BKN015
     FM170300 VRB03KT 2SM -RA BR OVC006
     FM171000 29006KT P6SM BKN010 BKN035
     FM171600 28012G18KT P6SM SCT025 BKN050
     FM171900 28015G23KT P6SM BKN035
     FM172300 29015G23KT P6SM SCT035=



000
FTUS41 KOKX 162300
TAFJFK
TAF
KJFK 162320Z 1700/1806 13007KT 6SM -RA BKN015
     FM170100 VRB03KT 2SM -RA BR OVC008
     FM170600 25006KT 5SM -RA BR OVC008
     FM170800 29010KT P6SM BKN010 BKN035
     FM171500 29013G20KT P6SM SCT025 BKN050
     FM171800 28015G23KT P6SM BKN035
     FM172300 28018G28KT P6SM SCT035=



000
FTUS41 KOKX 162000 AAB
TAFBDR
TAF AMD
KBDR 162047Z 1621/1718 09005KT P6SM OVC025
      TEMPO 1621/1623 SCT025 SCT035
     FM162300 12004KT 5SM -RA BR OVC015
     FM170300 VRB03KT 2SM -RA BR OVC006
     FM171000 31006KT P6SM BKN010 BKN035
     FM171600 28012G18KT P6SM SCT025 BKN050=



000
FTUS41 KOKX 162000 AAB
TAFISP
TAF AMD
KISP 162047Z 1621/1718 12005KT P6SM OVC020
      TEMPO 1621/1623 SCT025 SCT035
     FM162300 12004KT 5SM -RA BR OVC015
     FM170300 VRB03KT 2SM -RA BR OVC006
     FM171000 29006KT P6SM BKN010 BKN035
     FM171600 28012G18KT P6SM SCT025 BKN050=



000
FTUS41 KOKX 162000 AAA
TAFGON
TAF AMD
KGON 162018Z 1620/1718 09005KT P6SM OVC025
     FM162300 12004KT 5SM -RA BR OVC015
     FM170500 VRB03KT 2SM -RA BR OVC004
     FM171200 31006KT P6SM BKN010 BKN035
     FM171700 28012KT P6SM SCT025 BKN050=



000
FTUS41 KOKX 162000 AAA
TAFBDR
TAF AMD
KBDR 162018Z 1620/1718 09005KT P6SM OVC025
     FM162300 12004KT 5SM -RA BR OVC015
     FM170300 VRB03KT 2SM -RA BR OVC006
     FM171000 31006KT P6SM BKN010 BKN035
     FM171600 28012G18KT P6SM SCT025 BKN050=



000
FTUS41 KOKX 162000 AAA
TAFJFK
TAF AMD
KJFK 162018Z 1620/1724 13006KT P6SM OVC025
      TEMPO 1620/1622 SCT025 SCT035
     FM162200 13007KT 6SM -RA OVC015
     FM170100 VRB03KT 2SM -RA BR OVC008
     FM170600 25006KT 5SM -RA BR OVC008
     FM170800 29010KT P6SM BKN010 BKN035
     FM171500 29013G20KT P6SM SCT025 BKN050
     FM171800 28015G23KT P6SM BKN035=



000
FTUS41 KOKX 162000 AAA
TAFEWR
TAF AMD
KEWR 162018Z 1620/1724 12005KT P6SM OVC025
      TEMPO 1620/1622 SCT025 SCT035
     FM162200 12005KT 6SM -RA OVC015
     FM170100 VRB03KT 3SM -RA BR OVC007
     FM170600 26007KT 5SM -RA BR OVC009
     FM170800 28007KT P6SM BKN010 BKN035
     FM171500 28011G17KT P6SM SCT025 BKN050
     FM171800 28015G23KT P6SM BKN035=



000
FTUS41 KOKX 162000 AAA
TAFISP
TAF AMD
KISP 162018Z 1620/1718 12005KT P6SM OVC020
     FM162300 12004KT 5SM -RA BR OVC015
     FM170300 VRB03KT 2SM -RA BR OVC006
     FM171000 29006KT P6SM BKN010 BKN035
     FM171600 28012G18KT P6SM SCT025 BKN050=



000
FTUS41 KOKX 162000 AAA
TAFLGA
TAF AMD
KLGA 162018Z 1620/1718 06005KT P6SM OVC025
      TEMPO 1620/1622 SCT025 SCT035
     FM162200 13008KT 6SM -RA OVC015
     FM170100 VRB03KT 3SM -RA BR OVC009
     FM170600 27008KT 5SM -RA BR OVC009
     FM170800 29008KT P6SM BKN010 BKN035
     FM171500 29012G19KT P6SM SCT025 BKN050=



000
FTUS41 KOKX 162000 AAA
TAFSWF
TAF AMD
KSWF 162018Z 1620/1724 12004KT P6SM OVC015
     FM162200 12003KT 3SM -RA OVC008
     FM170000 VRB03KT 2SM -RA BR OVC004
     FM170900 VRB03KT 3SM BR OVC009
     FM171300 27007KT P6SM SCT020 BKN035
     FM171700 28012G20KT P6SM SCT025 BKN035
      AMD NOT SKED=



000
FTUS41 KOKX 162000 AAA
TAFTEB
TAF AMD
KTEB 162018Z 1620/1718 11005KT P6SM OVC025
      TEMPO 1620/1622 SCT025 SCT035
     FM162200 14005KT 6SM -RA OVC015
     FM170100 VRB03KT 2SM -RA BR OVC007
     FM170700 27003KT 3SM -RA BR OVC005
     FM170900 27004KT P6SM BKN010 BKN035
     FM171500 28010G15KT P6SM SCT025 BKN050=



000
FTUS41 KOKX 161700 RRB
TAFSWF
TAF
KSWF 161747Z 1618/1724 12004KT P6SM OVC015
     FM162200 12003KT 3SM -RA OVC008
     FM170000 VRB03KT 2SM -RA BR OVC004
     FM170900 VRB03KT 3SM BR OVC009
     FM171300 27007KT P6SM SCT020 BKN035
     FM171700 28012G20KT P6SM SCT025 BKN035
      AMD NOT SKED=



000
FTUS41 KOKX 161700 RRA
TAFEWR
TAF
KEWR 161742Z 1618/1724 12005KT P6SM SCT015 OVC025
      TEMPO 1618/1621 BKN015 OVC025
     FM162100 13007KT 6SM -RA OVC015
     FM170100 VRB03KT 3SM -RA BR OVC007
     FM170600 26007KT 5SM -RA BR OVC009
     FM170800 28007KT P6SM BKN010 BKN035
     FM171500 28011G17KT P6SM SCT025 BKN050
     FM171800 28015G23KT P6SM BKN035=



000
FTUS41 KOKX 161700 RRA
TAFJFK
TAF
KJFK 161742Z 1618/1724 13006KT P6SM SCT015 OVC025
     FM162100 13007KT 6SM -RA OVC015
     FM170100 VRB03KT 2SM -RA BR OVC008
     FM170600 25006KT 5SM -RA BR OVC008
     FM170800 29010KT P6SM BKN010 BKN035
     FM171500 29013G20KT P6SM SCT025 BKN050
     FM171800 28015G23KT P6SM BKN035=



000
FTUS41 KOKX 161700 RRA
TAFTEB
TAF
KTEB 161742Z 1618/1718 12004KT P6SM SCT015 OVC025
      TEMPO 1618/1621 BKN015 OVC025
     FM162100 14005KT 6SM -RA OVC015
     FM170100 VRB03KT 2SM -RA BR OVC007
     FM170700 27003KT 3SM -RA BR OVC005
     FM170900 27004KT P6SM BKN010 BKN035
     FM171500 28010G15KT P6SM SCT025 BKN050=



000
FTUS41 KOKX 161700 RRA
TAFBDR
TAF
KBDR 161742Z 1618/1718 09005KT P6SM OVC020
     FM162300 12004KT 5SM -RA BR OVC015
     FM170300 VRB03KT 2SM -RA BR OVC006
     FM171000 31006KT P6SM BKN010 BKN035
     FM171600 28012G18KT P6SM SCT025 BKN050=



000
FTUS41 KOKX 161700 RRA
TAFISP
TAF
KISP 161742Z 1618/1718 13005KT P6SM OVC020
     FM162300 12004KT 5SM -RA BR OVC015
     FM170300 VRB03KT 2SM -RA BR OVC006
     FM171000 29006KT P6SM BKN010 BKN035
     FM171600 28012G18KT P6SM SCT025 BKN050=



000
FTUS41 KOKX 161700 RRA
TAFGON
TAF
KGON 161742Z 1618/1718 09005KT P6SM OVC020
     FM162300 12004KT 5SM -RA BR OVC015
     FM170500 VRB03KT 2SM -RA BR OVC004
     FM171200 31006KT P6SM BKN010 BKN035
     FM171700 28012KT P6SM SCT025 BKN050=



000
FTUS41 KOKX 161700 RRA
TAFLGA
TAF
KLGA 161742Z 1618/1718 06005KT P6SM SCT015 OVC025
     FM162100 13008KT 6SM -RA OVC015
     FM170100 VRB03KT 3SM -RA BR OVC009
     FM170600 27008KT 5SM -RA BR OVC009
     FM170800 29008KT P6SM BKN010 BKN035
     FM171500 29012G19KT P6SM SCT025 BKN050=



000
FTUS41 KOKX 161700 RRA
TAFSWF
TAF
KSWF 161742Z 1618/1724 12004KT P6SM OVC015
     FM162100 12003KT 3SM -RA OVC008
     FM170000 VRB03KT 2SM -RA BR OVC004
     FM170800 VRB04KT 3SM BR OVC010
     FM171200 27007KT P6SM SCT020 BKN035
      AMD NOT SKED=



000
FTUS41 KOKX 161400 AAA
TAFTEB
TAF AMD
KTEB 161440Z 1615/1712 VRB03KT 6SM BR OVC025
     FM161700 14004KT P6SM OVC025
      TEMPO 1618/1621 BKN015 OVC025
     FM162100 14005KT 6SM -RA OVC015
     FM170000 12004KT 3SM -RA BR OVC007
     FM170400 VRB04KT 3SM -RA BR OVC005
     FM170800 27004KT P6SM SCT025 BKN040=



000
FTUS41 KOKX 161400 AAA
TAFGON
TAF AMD
KGON 161440Z 1615/1712 09005KT 5SM BR SCT015 OVC025
     FM170000 12005KT 3SM -RA OVC007
     FM170300 14005KT 2SM -RA BR OVC005
     FM170900 18005KT 2SM -RA BR OVC003=



000
FTUS41 KOKX 161400 AAA
TAFBDR
TAF AMD
KBDR 161440Z 1615/1712 06006KT P6SM OVC020
     FM161700 11006KT P6SM OVC020
     FM162200 13005KT 5SM -RA OVC010
     FM170300 14005KT 2SM -RA BR OVC008
     FM170900 21007KT P6SM SCT008 BKN015=



000
FTUS41 KOKX 161400 AAA
TAFEWR
TAF AMD
KEWR 161440Z 1615/1718 12004KT P6SM SCT015 OVC025
      TEMPO 1618/1621 BKN015 OVC025
     FM162100 13007KT 6SM -RA OVC015
     FM170000 13005KT 4SM -RA BR OVC007
     FM170500 25007KT 5SM -RA BR OVC009
     FM170800 29007KT P6SM SCT025 BKN040=



000
FTUS41 KOKX 161400 AAA
TAFJFK
TAF AMD
KJFK 161440Z 1615/1718 14005KT P6SM SCT015 OVC025
      TEMPO 1618/1621 BKN015 OVC025
     FM162100 14008KT 6SM -RA OVC015
     FM170000 15007KT 3SM -RA BR OVC008
     FM170500 25006KT 5SM -RA BR OVC008
     FM170800 29010KT P6SM SCT020 BKN035
     FM171200 29013G20KT P6SM SCT030 SCT070=



000
FTUS41 KOKX 161400 AAA
TAFSWF
TAF AMD
KSWF 161440Z 1615/1718 12004KT P6SM OVC015
     FM162100 12003KT 3SM -RA OVC008
     FM170000 VRB03KT 2SM -RA BR OVC004
     FM170800 VRB04KT 3SM BR OVC010
     FM171200 27007KT P6SM SCT020 BKN035
      AMD NOT SKED=



000
FTUS41 KOKX 161400 AAA
TAFISP
TAF AMD
KISP 161440Z 1615/1712 14005KT P6SM OVC020
     FM162200 15005KT 5SM -RA BR OVC012
     FM170300 14006KT 2SM -RA BR OVC006
     FM170900 25007KT P6SM SCT008 BKN015=



000
FTUS41 KOKX 161400 AAA
TAFLGA
TAF AMD
KLGA 161440Z 1615/1712 07006KT P6SM OVC025
     FM161700 13006KT P6SM SCT015 OVC025
      TEMPO 1618/1621 BKN015 OVC025
     FM162100 13008KT 6SM -RA OVC015
     FM170000 12006KT 4SM -RA OVC009
     FM170500 25008KT 5SM -RA BR OVC009
     FM170800 29008KT P6SM SCT020 BKN035=



000
FTUS41 KOKX 161100
TAFISP
TAF
KISP 161129Z 1612/1712 00000KT P6SM OVC020
     FM161500 15007KT P6SM OVC020
     FM162200 15005KT 5SM -RA BR OVC012
     FM170300 14006KT 2SM -RA BR OVC006
     FM170900 25007KT P6SM SCT008 BKN015=



000
FTUS41 KOKX 161100
TAFJFK
TAF
KJFK 161129Z 1612/1718 VRB03KT P6SM OVC025
     FM161300 14005KT P6SM OVC025
     FM162100 14008KT 6SM -RA OVC015
     FM170000 15007KT 3SM -RA BR OVC008
     FM170500 25006KT 5SM -RA BR OVC008
     FM170800 29010KT P6SM SCT020 BKN035
     FM171200 29013G20KT P6SM SCT030 SCT070=



000
FTUS41 KOKX 161100
TAFBDR
TAF
KBDR 161129Z 1612/1712 06006KT P6SM OVC020
     FM161500 11006KT P6SM OVC020
     FM162200 13005KT 5SM -RA OVC010
     FM170300 14005KT 2SM -RA BR OVC008
     FM170900 21007KT P6SM SCT008 BKN015=



000
FTUS41 KOKX 161100
TAFLGA
TAF
KLGA 161129Z 1612/1712 05004KT P6SM OVC025
     FM161400 13006KT P6SM OVC025
     FM162100 13008KT 6SM -RA OVC015
     FM170000 12006KT 4SM -RA OVC009
     FM170500 25008KT 5SM -RA BR OVC009
     FM170800 29008KT P6SM SCT020 BKN035=



000
FTUS41 KOKX 161100
TAFGON
TAF
KGON 161129Z 1612/1712 VRB02KT 5SM BR OVC020
     FM161400 12005KT 6SM BR OVC015
     FM170000 12005KT 3SM -RA OVC007
     FM170300 14005KT 2SM -RA BR OVC005
     FM170900 18005KT 2SM -RA BR OVC003=



000
FTUS41 KOKX 161100
TAFTEB
TAF
KTEB 161129Z 1612/1712 VRB03KT 6SM BR OVC025
     FM161400 14004KT P6SM OVC025
     FM162100 14005KT 6SM -RA OVC015
     FM170000 12004KT 3SM -RA BR OVC007
     FM170400 VRB04KT 3SM -RA BR OVC005
     FM170800 27004KT P6SM SCT025 BKN040=



000
FTUS41 KOKX 161100
TAFSWF
TAF
KSWF 161129Z 1612/1718 VRB03KT P6SM OVC015
     FM162100 VRB03KT 3SM -RA OVC008
     FM170000 VRB03KT 2SM -RA BR OVC004
     FM170800 VRB04KT 3SM BR OVC010
     FM171200 27007KT P6SM SCT020 BKN035
      AMD NOT SKED=



000
FTUS41 KOKX 161100
TAFEWR
TAF
KEWR 161129Z 1612/1718 05004KT P6SM OVC025
     FM161400 12004KT P6SM OVC025
     FM162100 13007KT 6SM -RA OVC015
     FM170000 13005KT 4SM -RA BR OVC007
     FM170500 25007KT 5SM -RA BR OVC009
     FM170800 29007KT P6SM SCT025 BKN040=



000
FTUS41 KOKX 161000 AAB
TAFJFK
TAF AMD
KJFK 161018Z 1610/1712 VRB03KT P6SM OVC025
     FM161300 13005KT P6SM OVC025
     FM162100 13008KT 6SM -DZ OVC015
     FM170000 15007KT 3SM -RA BR OVC008
     FM170400 25006KT 5SM -RA BR OVC008
     FM170800 29010KT P6SM SCT020 BKN035=



000
FTUS41 KOKX 161000 AAB
TAFLGA
TAF AMD
KLGA 161018Z 1610/1706 05004KT P6SM OVC025
     FM161400 13006KT P6SM OVC025
     FM162100 13006KT 6SM -DZ OVC015
     FM170000 12006KT 4SM -RA OVC009
     FM170400 30008KT 5SM -RA BR OVC009=



000
FTUS41 KOKX 161000 AAB
TAFISP
TAF AMD
KISP 161018Z 1610/1706 00000KT 6SM BR BKN020
     FM162200 15005KT 5SM -DZ BR OVC012
     FM170300 14006KT 2SM -RA BR OVC006=



000
FTUS41 KOKX 161000 AAB
TAFEWR
TAF AMD
KEWR 161018Z 1610/1712 05004KT P6SM OVC025
     FM161400 12005KT P6SM OVC025
     FM162100 13008KT 6SM -DZ OVC015
     FM170000 13005KT 4SM -RA BR OVC007
     FM170400 28007KT 5SM -RA BR OVC009
     FM170800 29008KT P6SM SCT025 BKN040=



000
FTUS41 KOKX 161000 AAB
TAFGON
TAF AMD
KGON 161018Z 1610/1706 VRB02KT 5SM BR OVC020
     FM161400 12005KT 6SM BR OVC015
     FM162200 12005KT 2SM -RA OVC007=



000
FTUS41 KOKX 161000 AAB
TAFTEB
TAF AMD
KTEB 161018Z 1610/1706 VRB03KT 6SM BR OVC025
     FM161400 14004KT P6SM OVC025
     FM162100 14005KT 6SM -DZ OVC010
     FM170000 12004KT 3SM -RA BR OVC007
     FM170400 VRB04KT 3SM -RA BR OVC005=



000
FTUS41 KOKX 161000 AAB
TAFBDR
TAF AMD
KBDR 161018Z 1610/1706 VRB04KT P6SM OVC025
     FM162200 15005KT 5SM -DZ OVC010
     FM170300 14005KT 2SM -RA BR OVC008=



000
FTUS41 KOKX 160800 AAA
TAFJFK
TAF AMD
KJFK 160839Z 1609/1712 VRB03KT P6SM OVC018
     FM161100 13005KT P6SM OVC015
     FM162100 13008KT 6SM -DZ OVC010
     FM170000 15007KT 3SM -RA BR OVC008
     FM170400 25006KT 5SM -RA BR OVC008
     FM170800 29010KT P6SM SCT020 BKN035=



000
FTUS41 KOKX 160800 AAA
TAFGON
TAF AMD
KGON 160839Z 1609/1706 VRB02KT 5SM BR OVC020
     FM161400 12005KT 6SM BR OVC015
     FM162200 12005KT 2SM -RA OVC007=



000
FTUS41 KOKX 160800 AAA
TAFBDR
TAF AMD
KBDR 160839Z 1609/1706 VRB04KT P6SM SCT015 BKN250
      TEMPO 1609/1612 5SM BR BKN015
     FM161200 10004KT 6SM BR OVC015
     FM162200 15005KT 5SM -DZ OVC010
     FM170300 14005KT 2SM -RA BR OVC008=



000
FTUS41 KOKX 160800 AAA
TAFEWR
TAF AMD
KEWR 160839Z 1609/1712 VRB03KT P6SM SCT020 BKN250
      TEMPO 1609/1612 BKN015
     FM161200 12005KT P6SM BKN015
     FM162100 13008KT 6SM -DZ OVC010
     FM170000 13005KT 4SM -RA BR OVC007
     FM170400 28007KT 5SM -RA BR OVC009
     FM170800 29008KT P6SM SCT025 BKN040=



000
FTUS41 KOKX 160800 AAA
TAFLGA
TAF AMD
KLGA 160839Z 1609/1706 05004KT P6SM FEW020 BKN250
     FM160930 05004KT P6SM OVC018
     FM161100 10006KT P6SM OVC015
     FM162100 13006KT 6SM -DZ OVC010
     FM170000 12006KT 4SM -RA OVC009
     FM170400 30008KT 5SM -RA BR OVC009=



000
FTUS41 KOKX 160800 AAA
TAFISP
TAF AMD
KISP 160839Z 1609/1706 00000KT 6SM BR BKN020
      TEMPO 1609/1611 4SM BR BKN015
     FM161100 VRB03KT 5SM BR OVC015
     FM162200 15005KT 5SM -DZ BR OVC008
     FM170300 14006KT 2SM -RA BR OVC006=



000
FTUS41 KOKX 160800 AAA
TAFTEB
TAF AMD
KTEB 160839Z 1609/1706 VRB02KT P6SM SCT015 BKN250
      TEMPO 1609/1612 3SM BR BKN015
     FM161200 VRB04KT P6SM BKN015
     FM162100 12005KT 6SM -DZ OVC009
     FM170000 12004KT 3SM -RA BR OVC007
     FM170400 VRB04KT 3SM -RA BR OVC005=



000
FTUS41 KOKX 160500
TAFISP
TAF
KISP 160538Z 1606/1706 00000KT P6SM FEW025 SCT250
     FM160800 00000KT P6SM BKN015
      TEMPO 1608/1611 2SM BR
     FM161100 VRB03KT 5SM BR OVC015
     FM162200 15005KT 5SM -DZ BR OVC008
     FM170300 14006KT 2SM -RA BR OVC006=



000
FTUS41 KOKX 160500
TAFEWR
TAF
KEWR 160538Z 1606/1712 VRB02KT P6SM FEW020 SCT250
     FM160900 VRB03KT P6SM BKN015
     FM161200 12005KT P6SM BKN015
     FM162100 13008KT 6SM -DZ OVC010
     FM170000 13005KT 4SM -RA BR OVC007
     FM170400 28007KT 5SM -RA BR OVC009
     FM170800 29008KT P6SM SCT025 BKN040=



000
FTUS41 KOKX 160500
TAFGON
TAF
KGON 160538Z 1606/1706 VRB03KT 3SM BR OVC020
      TEMPO 1606/1608 2SM BR
     FM160800 VRB02KT 2SM BR OVC018
     FM162200 12005KT 2SM -RA OVC007=



000
FTUS41 KOKX 160500
TAFJFK
TAF
KJFK 160538Z 1606/1712 VRB04KT P6SM FEW025 SCT250
     FM160800 VRB03KT P6SM OVC015
     FM161100 13005KT P6SM OVC015
     FM162100 13008KT 6SM -DZ OVC010
     FM170000 15007KT 3SM -RA BR OVC008
     FM170400 25006KT 5SM -RA BR OVC008
     FM170800 29010KT P6SM SCT020 BKN035=



000
FTUS41 KOKX 160500
TAFLGA
TAF
KLGA 160538Z 1606/1706 VRB04KT P6SM FEW020 SCT250
     FM160900 VRB03KT P6SM OVC015
     FM161100 10006KT P6SM OVC015
     FM162100 13006KT 6SM -DZ OVC010
     FM170000 12006KT 4SM -RA OVC009
     FM170400 30008KT 5SM -RA BR OVC009=



000
FTUS41 KOKX 160500
TAFBDR
TAF
KBDR 160538Z 1606/1706 VRB02KT P6SM FEW250
     FM160900 VRB02KT P6SM SCT015
      TEMPO 1609/1612 5SM BR BKN015
     FM161200 10004KT 6SM BR OVC015
     FM162200 15005KT 5SM -DZ OVC010
     FM170300 14005KT 2SM -RA BR OVC008=



000
FTUS41 KOKX 160500
TAFTEB
TAF
KTEB 160538Z 1606/1706 VRB02KT P6SM FEW250
     FM160900 VRB02KT P6SM SCT015
      TEMPO 1609/1612 3SM BR BKN015
     FM161200 VRB04KT P6SM BKN015
     FM162100 12005KT 6SM -DZ OVC009
     FM170000 12004KT 3SM -RA BR OVC007
     FM170400 VRB04KT 3SM -RA BR OVC005=



000
FTUS41 KOKX 160500
TAFSWF
TAF
KSWF 160538Z 1606/1712 00000KT P6SM FEW012
     FM160800 00000KT 6SM BR SCT012
      TEMPO 1608/1611 3SM BR BKN012
     FM161200 VRB02KT 4SM BR OVC010
     FM162000 VRB02KT 3SM -DZ OVC008
     FM162300 VRB02KT 2SM -RA BR OVC004
     FM170800 VRB04KT 3SM BR OVC010
      AMD NOT SKED=



000
FTUS41 KOKX 160200 AAA
TAFJFK
TAF AMD
KJFK 160230Z 1603/1706 VRB04KT P6SM FEW025 SCT250
     FM160900 VRB03KT P6SM SCT015
     FM161500 13006KT P6SM BKN015
     FM162100 13008KT 6SM -DZ OVC010
     FM170000 15007KT 5SM -RA BR OVC008
     FM170400 25006KT 5SM -RA BR OVC008=



000
FTUS41 KOKX 160200 AAA
TAFISP
TAF AMD
KISP 160230Z 1603/1624 00000KT P6SM FEW025 SCT250
     FM160900 00000KT P6SM SCT015
      TEMPO 1609/1612 2SM BR
     FM161500 13004KT P6SM BKN015
     FM162200 15005KT 5SM -DZ BR OVC008=



000
FTUS41 KOKX 160200 AAA
TAFLGA
TAF AMD
KLGA 160230Z 1603/1624 17004KT P6SM FEW030 SCT250
     FM160900 VRB03KT P6SM SCT015
     FM161500 10006KT P6SM BKN015
     FM162100 13006KT 6SM -DZ OVC010=



000
FTUS41 KOKX 160200 AAA
TAFBDR
TAF AMD
KBDR 160230Z 1603/1624 VRB02KT P6SM FEW250
     FM160900 VRB02KT P6SM SCT015
      TEMPO 1609/1612 5SM BR
     FM161500 10004KT P6SM BKN015
     FM162200 15005KT 6SM -DZ OVC010=



000
FTUS41 KOKX 160200 AAA
TAFTEB
TAF AMD
KTEB 160230Z 1603/1624 VRB02KT P6SM FEW250
     FM160900 VRB02KT P6SM SCT015
      TEMPO 1609/1612 3SM BR
     FM161300 VRB04KT P6SM BKN015
     FM162100 12005KT 6SM -DZ OVC009=



000
FTUS41 KOKX 160200 AAA
TAFSWF
TAF AMD
KSWF 160230Z 1603/1706 00000KT P6SM FEW250
     FM160800 00000KT 6SM BR SCT015
      TEMPO 1609/1612 3SM BR BKN015
     FM161200 VRB03KT P6SM BKN015
     FM162100 VRB03KT 6SM -DZ OVC008
     FM170000 VRB03KT 5SM -RA BR OVC004
      AMD NOT SKED=



000
FTUS41 KOKX 160200 AAA
TAFGON
TAF AMD
KGON 160230Z 1603/1624 VRB03KT P6SM FEW250
     FM160800 VRB03KT P6SM SCT015
      TEMPO 1608/1612 4SM BR
     FM161500 VRB04KT P6SM BKN015
     FM162200 14005KT 6SM -DZ OVC015=



000
FTUS41 KOKX 160200 AAA
TAFEWR
TAF AMD
KEWR 160230Z 1603/1706 VRB02KT P6SM SCT250
     FM160900 VRB03KT P6SM SCT015
     FM161400 12005KT P6SM BKN015
     FM162100 13008KT 6SM -DZ OVC010
     FM170000 13005KT 4SM -RA BR OVC007
     FM170400 28007KT 5SM -RA BR OVC009=



000
FTUS41 KOKX 152300
TAFISP
TAF
KISP 152331Z 1600/1624 00000KT P6SM FEW250
     FM160900 00000KT P6SM SCT015
     FM161500 13004KT P6SM BKN015
     FM162200 15005KT 5SM -DZ BR OVC008=



000
FTUS41 KOKX 152300
TAFSWF
TAF
KSWF 152331Z 1600/1706 00000KT P6SM FEW250
     FM160800 00000KT 6SM BR SCT015
     FM161200 VRB03KT P6SM BKN015
     FM162100 VRB03KT 6SM -DZ OVC008
     FM170000 VRB03KT 5SM -RA BR OVC004
      AMD NOT SKED=



000
FTUS41 KOKX 152300
TAFBDR
TAF
KBDR 152331Z 1600/1624 VRB02KT P6SM FEW250
     FM160900 VRB02KT P6SM SCT015
     FM161500 10004KT P6SM BKN015
     FM162200 15005KT 6SM -DZ OVC010=



000
FTUS41 KOKX 152300
TAFJFK
TAF
KJFK 152331Z 1600/1706 VRB04KT P6SM FEW250
     FM160900 VRB03KT P6SM SCT015
     FM161500 13006KT P6SM BKN015
     FM162100 13008KT 6SM -DZ OVC010
     FM170000 15007KT 5SM -RA BR OVC008
     FM170400 25006KT 5SM -RA BR OVC008=



000
FTUS41 KOKX 152300
TAFEWR
TAF
KEWR 152331Z 1600/1706 VRB03KT P6SM FEW250
     FM160900 VRB03KT P6SM SCT015
     FM161400 12005KT P6SM BKN015
     FM162100 13008KT 6SM -DZ OVC010
     FM170000 13005KT 4SM -RA BR OVC007
     FM170400 28007KT 5SM -RA BR OVC009=



000
FTUS41 KOKX 152300
TAFTEB
TAF
KTEB 152331Z 1600/1624 VRB02KT P6SM FEW250
     FM160900 VRB02KT P6SM SCT015
     FM161300 VRB04KT P6SM BKN015
     FM162100 12005KT 6SM -DZ OVC009=



000
FTUS41 KOKX 152300
TAFGON
TAF
KGON 152331Z 1600/1624 VRB03KT P6SM FEW250
     FM160800 VRB03KT P6SM SCT015
     FM161500 VRB04KT P6SM BKN015
     FM162200 14005KT 6SM -DZ OVC015=



000
FTUS41 KOKX 152300
TAFLGA
TAF
KLGA 152331Z 1600/1624 VRB04KT P6SM FEW250
     FM160900 VRB03KT P6SM SCT015
     FM161500 10006KT P6SM BKN015
     FM162100 13006KT 6SM -DZ OVC010=



000
FTUS41 KOKX 152000 AAA
TAFSWF
TAF AMD
KSWF 152032Z 1521/1624 00000KT P6SM SCT015
     FM160800 00000KT 6SM BR SCT015
     FM161200 VRB03KT P6SM BKN015
     FM162100 VRB03KT 6SM -DZ OVC008
      AMD NOT SKED=



000
FTUS41 KOKX 152000 AAA
TAFBDR
TAF AMD
KBDR 152032Z 1521/1618 VRB03KT P6SM FEW025
     FM160600 VRB03KT P6SM SCT015
     FM161100 08004KT P6SM BKN015=



000
FTUS41 KOKX 152000 AAA
TAFGON
TAF AMD
KGON 152032Z 1521/1618 VRB03KT P6SM FEW025
     FM160300 VRB03KT P6SM SCT015
     FM160800 VRB04KT P6SM BKN015=



000
FTUS41 KOKX 152000 AAA
TAFLGA
TAF AMD
KLGA 152032Z 1521/1618 VRB04KT P6SM FEW025
     FM160600 VRB03KT P6SM SCT015
     FM161200 08006KT P6SM BKN015=



000
FTUS41 KOKX 152000 AAA
TAFTEB
TAF AMD
KTEB 152032Z 1521/1618 VRB03KT P6SM FEW025
     FM160600 VRB03KT P6SM SCT015
     FM161200 VRB04KT P6SM BKN015=



000
FTUS41 KOKX 152000 AAA
TAFJFK
TAF AMD
KJFK 152032Z 1521/1624 VRB04KT P6SM FEW025
     FM160600 VRB03KT P6SM SCT015
     FM161200 11005KT P6SM BKN015
     FM162100 12008KT 6SM -DZ OVC010=



000
FTUS41 KOKX 152000 AAA
TAFISP
TAF AMD
KISP 152032Z 1521/1618 VRB03KT P6SM FEW025
     FM160400 VRB03KT P6SM SCT015
     FM160900 11004KT P6SM BKN015=



000
FTUS41 KOKX 152000 AAA
TAFEWR
TAF AMD
KEWR 152032Z 1521/1624 VRB04KT P6SM FEW025
     FM160600 VRB03KT P6SM SCT015
     FM161200 09005KT P6SM BKN015
     FM162100 12008KT 6SM -DZ OVC010=



000
FTUS41 KOKX 151700
TAFTEB
TAF
KTEB 151724Z 1518/1618 VRB03KT P6SM SCT025
     FM160600 VRB03KT P6SM SCT015
     FM161200 VRB04KT P6SM BKN015=



000
FTUS41 KOKX 151700
TAFISP
TAF
KISP 151724Z 1518/1618 32006KT P6SM SCT030
     FM152200 VRB03KT P6SM SCT025
     FM160400 VRB03KT P6SM SCT015
     FM160900 11004KT P6SM BKN015=



000
FTUS41 KOKX 151700
TAFSWF
TAF
KSWF 151724Z 1518/1624 VRB03KT P6SM SCT025
     FM152200 00000KT P6SM SCT015
     FM160800 00000KT 6SM BR SCT015
     FM161200 VRB03KT P6SM BKN015
     FM162100 VRB03KT 6SM -DZ OVC008
      AMD NOT SKED=



000
FTUS41 KOKX 151700
TAFJFK
TAF
KJFK 151724Z 1518/1624 32006KT P6SM FEW030
     FM152000 VRB04KT P6SM SCT025
     FM160600 VRB03KT P6SM SCT015
     FM161200 11005KT P6SM BKN015
     FM162100 12008KT 6SM -DZ OVC010=



000
FTUS41 KOKX 151700
TAFEWR
TAF
KEWR 151724Z 1518/1624 30005KT P6SM FEW030
     FM151900 VRB04KT P6SM SCT025
     FM160600 VRB03KT P6SM SCT015
     FM161200 09005KT P6SM BKN015
     FM162100 12008KT 6SM -DZ OVC010=



000
FTUS41 KOKX 151700
TAFGON
TAF
KGON 151724Z 1518/1618 32006KT P6SM SCT030
     FM152000 VRB03KT P6SM SCT025
     FM160300 VRB03KT P6SM SCT015
     FM160800 VRB04KT P6SM BKN015=



000
FTUS41 KOKX 151700
TAFBDR
TAF
KBDR 151724Z 1518/1618 32006KT P6SM SCT030
     FM152000 VRB03KT P6SM SCT025
     FM160600 VRB03KT P6SM SCT015
     FM161100 08004KT P6SM BKN015=



000
FTUS41 KOKX 151700
TAFLGA
TAF
KLGA 151724Z 1518/1618 31005KT P6SM FEW030
     FM152000 VRB04KT P6SM SCT025
     FM160600 VRB03KT P6SM SCT015
     FM161200 08006KT P6SM BKN015=



000
FTUS41 KOKX 151400 AAA
TAFGON
TAF AMD
KGON 151433Z 1515/1612 VRB04KT P6SM SCT025
     FM160000 VRB03KT P6SM SCT015=



000
FTUS41 KOKX 151400 AAA
TAFISP
TAF AMD
KISP 151433Z 1515/1612 34006KT P6SM SCT025
     FM152200 VRB03KT P6SM SCT015=



000
FTUS41 KOKX 151400 AAB
TAFBDR
TAF AMD
KBDR 151433Z 1515/1612 VRB03KT P6SM SCT025
     FM160000 VRB03KT P6SM SCT015=



000
FTUS41 KOKX 151400 AAA
TAFJFK
TAF AMD
KJFK 151433Z 1515/1618 35006KT P6SM FEW025
     FM152000 VRB03KT P6SM SCT025
     FM160000 VRB03KT P6SM SCT015
     FM160800 VRB03KT 6SM BR SCT015
     FM161400 15006KT P6SM SCT015=



000
FTUS41 KOKX 151400 AAA
TAFTEB
TAF AMD
KTEB 151433Z 1515/1612 VRB03KT P6SM FEW025
     FM160000 00000KT P6SM SCT015
     FM160800 00000KT 6SM BR SCT015=



000
FTUS41 KOKX 151400 AAA
TAFLGA
TAF AMD
KLGA 151433Z 1515/1612 36006KT P6SM FEW025
     FM151900 VRB03KT P6SM SCT025
     FM160000 VRB03KT P6SM SCT015=



000
FTUS41 KOKX 151400 AAA
TAFEWR
TAF AMD
KEWR 151433Z 1515/1618 31005KT P6SM FEW025
     FM151900 VRB03KT P6SM SCT025
     FM160000 VRB03KT P6SM SCT015
     FM160800 04004KT 6SM BR SCT015
     FM161400 15005KT P6SM SCT015=



000
FTUS41 KOKX 151200 AAA
TAFBDR
TAF AMD
KBDR 151213Z 1512/1612 33005KT P6SM SCT025
      TEMPO 1512/1514 BKN020
     FM152100 VRB03KT P6SM SCT025
     FM160000 VRB03KT P6SM SCT015=



000
FTUS41 KOKX 151100
TAFLGA
TAF
KLGA 151132Z 1512/1612 35007KT P6SM FEW025
     FM151900 VRB03KT P6SM SCT025
     FM160000 VRB03KT P6SM SCT015=



000
FTUS41 KOKX 151100
TAFEWR
TAF
KEWR 151132Z 1512/1618 30005KT P6SM SKC
     FM151400 33005KT P6SM FEW025
     FM152000 VRB03KT P6SM SCT025
     FM160000 VRB03KT P6SM SCT015
     FM160800 04004KT 6SM BR SCT015
     FM161400 15005KT P6SM SCT015=



000
FTUS41 KOKX 151100
TAFTEB
TAF
KTEB 151132Z 1512/1612 33004KT P6SM SKC
     FM151600 VRB03KT P6SM SCT025
     FM160000 00000KT P6SM SCT015
     FM160800 00000KT 6SM BR SCT015=



000
FTUS41 KOKX 151100
TAFJFK
TAF
KJFK 151132Z 1512/1618 34006KT P6SM FEW025
     FM152000 VRB03KT P6SM SCT025
     FM160000 VRB03KT P6SM SCT015
     FM160800 VRB03KT 6SM BR SCT015
     FM161400 15006KT P6SM SCT015=



000
FTUS41 KOKX 151100
TAFSWF
TAF
KSWF 151132Z 1512/1618 VRB03KT P6SM SKC
     FM151700 VRB03KT P6SM SCT025
     FM160000 00000KT P6SM SCT015
     FM160800 00000KT 6SM BR SCT015
     FM161400 VRB03KT P6SM SCT015
      AMD NOT SKED=



000
FTUS41 KOKX 151100
TAFBDR
TAF
KBDR 151132Z 1512/1612 33005KT P6SM FEW025
     FM152100 VRB03KT P6SM SCT025
     FM160000 VRB03KT P6SM SCT015=



000
FTUS41 KOKX 151100
TAFISP
TAF
KISP 151132Z 1512/1612 VRB03KT P6SM SKC
     FM151400 34006KT P6SM SCT025
     FM152200 VRB03KT P6SM SCT015=



000
FTUS41 KOKX 151100
TAFGON
TAF
KGON 151132Z 1512/1612 VRB03KT 5SM BR SKC
     FM151300 34006KT P6SM SCT025
     FM152100 VRB03KT P6SM SCT025
     FM160000 VRB03KT P6SM SCT015=



000
FTUS41 KOKX 150800 AAA
TAFISP
TAF AMD
KISP 150830Z 1509/1606 VRB03KT P6SM SKC
     FM151400 34006KT P6SM FEW025
     FM151700 35005KT P6SM SCT025
     FM152200 VRB03KT P6SM SCT015=



000
FTUS41 KOKX 150800 AAA
TAFJFK
TAF AMD
KJFK 150830Z 1509/1612 33006KT P6SM SKC
     FM151500 36006KT P6SM FEW025
     FM152000 VRB03KT P6SM SCT025
     FM160000 VRB03KT P6SM SCT015
     FM160800 VRB03KT 6SM BR SCT015=



000
FTUS41 KOKX 150800 AAB
TAFGON
TAF AMD
KGON 150830Z 1509/1606 VRB03KT 5SM BR BKN020
     FM151100 VRB03KT 6SM BR SCT020
      TEMPO 1511/1512 5SM BR
     FM151400 34006KT P6SM FEW025
     FM151700 34006KT P6SM SCT025
     FM152100 VRB03KT P6SM SCT025
     FM160000 VRB03KT P6SM SCT015=



000
FTUS41 KOKX 150800 AAA
TAFLGA
TAF AMD
KLGA 150830Z 1509/1606 32008KT P6SM SKC
     FM151500 36005KT P6SM FEW025
     FM151900 VRB03KT P6SM SCT025
     FM160000 VRB03KT P6SM SCT015=



000
FTUS41 KOKX 150800 AAA
TAFEWR
TAF AMD
KEWR 150830Z 1509/1612 30006KT P6SM SKC
     FM151500 35005KT P6SM FEW025
     FM152000 VRB03KT P6SM SCT025
     FM160000 VRB03KT P6SM SCT015
     FM160800 05004KT 6SM BR SCT015=



000
FTUS41 KOKX 150800 AAA
TAFBDR
TAF AMD
KBDR 150830Z 1509/1606 VRB03KT P6SM SKC
     FM151500 33005KT P6SM FEW025
     FM152100 VRB03KT P6SM SCT025
     FM160000 VRB03KT P6SM SCT015=



000
FTUS41 KOKX 150800 AAA
TAFTEB
TAF AMD
KTEB 150830Z 1509/1606 33004KT P6SM SKC
     FM151600 VRB03KT P6SM SCT025
     FM160000 00000KT P6SM SCT015=



000
FTUS41 KOKX 150700 AAA
TAFGON
TAF AMD
KGON 150703Z 1507/1606 VRB03KT 6SM BR BKN020
      TEMPO 1507/1508 5SM BR
     FM151100 VRB03KT 6SM BR SCT020
     FM151400 34006KT P6SM FEW025
     FM151700 34006KT P6SM SCT025
     FM152100 VRB03KT P6SM SCT025
     FM160000 VRB03KT P6SM SCT015=



000
FTUS41 KOKX 150500
TAFGON
TAF
KGON 150532Z 1506/1606 VRB03KT 6SM BR FEW025
      TEMPO 1506/1508 5SM BR
     FM151400 34006KT P6SM FEW025
     FM151700 34006KT P6SM SCT025
     FM152100 VRB03KT P6SM SCT025
     FM160000 VRB03KT P6SM SCT015=



000
FTUS41 KOKX 150500
TAFTEB
TAF
KTEB 150532Z 1506/1606 31004KT P6SM FEW030
     FM151600 VRB03KT P6SM SCT025
     FM160000 00000KT P6SM SCT015=



000
FTUS41 KOKX 150500
TAFLGA
TAF
KLGA 150532Z 1506/1606 32008KT P6SM FEW030
     FM151500 36005KT P6SM FEW025
     FM151900 VRB03KT P6SM SCT025
     FM160000 VRB03KT P6SM SCT015=



000
FTUS41 KOKX 150500
TAFSWF
TAF
KSWF 150532Z 1506/1612 VRB03KT P6SM SKC
     FM151700 VRB03KT P6SM SCT025
     FM160000 00000KT P6SM SCT015
     FM160800 00000KT 6SM BR SCT015
      AMD NOT SKED=



000
FTUS41 KOKX 150500
TAFISP
TAF
KISP 150532Z 1506/1606 VRB03KT P6SM FEW030
     FM151400 34006KT P6SM FEW025
     FM151700 35005KT P6SM SCT025
     FM152200 VRB03KT P6SM SCT015=



000
FTUS41 KOKX 150500
TAFEWR
TAF
KEWR 150532Z 1506/1612 32006KT P6SM FEW030
     FM151800 VRB03KT P6SM SCT025
     FM160000 VRB03KT P6SM SCT015
     FM160800 05004KT 6SM BR SCT015=



000
FTUS41 KOKX 150500
TAFBDR
TAF
KBDR 150532Z 1506/1606 29004KT P6SM SKC
     FM150800 VRB03KT P6SM SKC
     FM151500 33005KT P6SM FEW025
     FM152100 VRB03KT P6SM SCT025
     FM160000 VRB03KT P6SM SCT015=



000
FTUS41 KOKX 150500
TAFJFK
TAF
KJFK 150532Z 1506/1612 33006KT P6SM FEW030
     FM152000 VRB03KT P6SM SCT025
     FM160000 VRB03KT P6SM SCT015
     FM160800 VRB03KT 6SM BR SCT015=



000
FTUS41 KOKX 150200 AAA
TAFGON
TAF AMD
KGON 150238Z 1503/1524 VRB03KT P6SM FEW025
     FM151400 34006KT P6SM FEW025
     FM152100 VRB03KT P6SM FEW025=



000
FTUS41 KOKX 150200 AAA
TAFISP
TAF AMD
KISP 150238Z 1503/1524 33006KT P6SM FEW030
     FM150600 VRB03KT P6SM FEW030
     FM151400 34006KT P6SM FEW025
     FM152100 VRB03KT P6SM FEW025=



000
FTUS41 KOKX 150200 AAA
TAFTEB
TAF AMD
KTEB 150238Z 1503/1524 VRB03KT P6SM FEW030=



000
FTUS41 KOKX 150200 AAA
TAFBDR
TAF AMD
KBDR 150238Z 1503/1524 VRB03KT P6SM FEW030
     FM151600 32006KT P6SM FEW025
     FM152000 VRB03KT P6SM FEW025=



000
FTUS41 KOKX 150200 AAA
TAFEWR
TAF AMD
KEWR 150238Z 1503/1606 33006KT P6SM FEW030
     FM151900 VRB03KT P6SM FEW025=



000
FTUS41 KOKX 150200 AAA
TAFLGA
TAF AMD
KLGA 150238Z 1503/1524 32010KT P6SM FEW030
     FM151500 36005KT P6SM FEW025
     FM151900 VRB03KT P6SM FEW025=



000
FTUS41 KOKX 150200 AAA
TAFJFK
TAF AMD
KJFK 150238Z 1503/1606 32010KT P6SM FEW030
     FM150600 33006KT P6SM FEW030
     FM151500 34007KT P6SM FEW025
     FM152000 VRB03KT P6SM FEW025=



000
FTUS41 KOKX 142300
TAFEWR
TAF
KEWR 142320Z 1500/1606 32010G16KT P6SM FEW030
     FM150300 33006KT P6SM FEW030
     FM151500 34005KT P6SM SCT020
     FM151900 VRB03KT P6SM SCT020=



000
FTUS41 KOKX 142300
TAFISP
TAF
KISP 142320Z 1500/1524 33006KT P6SM FEW025
     FM150600 VRB03KT P6SM FEW025
     FM151400 34006KT P6SM SCT020
     FM152100 VRB03KT P6SM SCT020=



000
FTUS41 KOKX 142300
TAFSWF
TAF
KSWF 142320Z 1500/1606 VRB03KT P6SM BKN030
     FM150200 VRB03KT P6SM SCT030
      AMD NOT SKED=



000
FTUS41 KOKX 142300
TAFTEB
TAF
KTEB 142320Z 1500/1524 32006KT P6SM FEW030
     FM150600 VRB03KT P6SM FEW030
     FM151500 VRB03KT P6SM SCT020=



000
FTUS41 KOKX 142300
TAFBDR
TAF
KBDR 142320Z 1500/1524 33005KT P6SM FEW025
     FM150600 VRB03KT P6SM FEW025
     FM151500 33006KT P6SM SCT020
     FM152100 VRB03KT P6SM SCT020=



000
FTUS41 KOKX 142300
TAFGON
TAF
KGON 142320Z 1500/1524 33006KT P6SM FEW025
     FM152100 VRB03KT P6SM FEW025=



000
FTUS41 KOKX 142300
TAFJFK
TAF
KJFK 142320Z 1500/1606 32010G17KT P6SM FEW030
     FM150300 32008KT P6SM FEW030
     FM151500 34007KT P6SM SCT020
     FM152000 VRB03KT P6SM SCT020=



000
FTUS41 KOKX 142300
TAFLGA
TAF
KLGA 142320Z 1500/1524 32010G16KT P6SM FEW030
     FM150300 33008KT P6SM FEW030
     FM151500 34006KT P6SM SCT020
     FM151900 02004KT P6SM SCT020=



    US Dept of Commerce
    National Oceanic and Atmospheric Administration
    National Weather Service
    1325 East West Highway
    Silver Spring, MD 20910
    Page Author: NWS Internet Services Team
Disclaimer
Information Quality
Credits
Glossary
Privacy Policy
Freedom of Information Act (FOIA)
About Us
Career Opportunities